sensor_id;sensor_type;location;lat;lon;timestamp;temperature;humidity
51021;DHT22;38907;45.562;8.856;2023-04-15T00:01:17;10.90;89.20
51021;DHT22;38907;45.562;8.856;2023-04-15T00:06:19;10.90;89.30
51021;DHT22;38907;45.562;8.856;2023-04-15T00:11:22;10.70;90.20
51021;DHT22;38907;45.562;8.856;2023-04-15T00:16:25;10.80;90.90
51021;DHT22;38907;45.562;8.856;2023-04-15T00:21:27;10.80;90.70
51021;DHT22;38907;45.562;8.856;2023-04-15T00:26:29;10.80;91.50
51021;DHT22;38907;45.562;8.856;2023-04-15T00:31:33;10.90;89.60
51021;DHT22;38907;45.562;8.856;2023-04-15T00:36:34;11.20;89.60
51021;DHT22;38907;45.562;8.856;2023-04-15T00:41:36;11.20;81.80
51021;DHT22;38907;45.562;8.856;2023-04-15T00:46:40;11.20;79.60
51021;DHT22;38907;45.562;8.856;2023-04-15T00:51:43;11.00;81.00
51021;DHT22;38907;45.562;8.856;2023-04-15T00:56:45;10.90;81.20
51021;DHT22;38907;45.562;8.856;2023-04-15T01:01:48;11.10;80.70
51021;DHT22;38907;45.562;8.856;2023-04-15T01:06:51;10.80;81.30
51021;DHT22;38907;45.562;8.856;2023-04-15T01:11:53;10.60;82.40
51021;DHT22;38907;45.562;8.856;2023-04-15T01:16:57;10.70;81.80
51021;DHT22;38907;45.562;8.856;2023-04-15T01:21:58;10.70;83.00
51021;DHT22;38907;45.562;8.856;2023-04-15T01:27:03;10.60;82.90
51021;DHT22;38907;45.562;8.856;2023-04-15T01:32:05;10.50;86.30
51021;DHT22;38907;45.562;8.856;2023-04-15T01:37:07;10.30;86.70
51021;DHT22;38907;45.562;8.856;2023-04-15T01:42:10;9.90;87.40
51021;DHT22;38907;45.562;8.856;2023-04-15T01:47:12;9.80;87.40
51021;DHT22;38907;45.562;8.856;2023-04-15T01:52:14;10.00;87.10
51021;DHT22;38907;45.562;8.856;2023-04-15T01:57:17;9.90;87.70
51021;DHT22;38907;45.562;8.856;2023-04-15T02:02:19;9.60;89.10
51021;DHT22;38907;45.562;8.856;2023-04-15T02:07:21;9.60;88.30
51021;DHT22;38907;45.562;8.856;2023-04-15T02:12:25;9.80;87.10
51021;DHT22;38907;45.562;8.856;2023-04-15T02:17:27;9.70;86.00
51021;DHT22;38907;45.562;8.856;2023-04-15T02:22:29;9.40;86.90
51021;DHT22;38907;45.562;8.856;2023-04-15T02:27:32;9.60;86.40
51021;DHT22;38907;45.562;8.856;2023-04-15T02:32:34;9.70;86.20
51021;DHT22;38907;45.562;8.856;2023-04-15T02:37:37;9.70;86.00
51021;DHT22;38907;45.562;8.856;2023-04-15T02:42:44;9.50;85.80
51021;DHT22;38907;45.562;8.856;2023-04-15T02:47:46;9.50;86.40
51021;DHT22;38907;45.562;8.856;2023-04-15T02:52:48;9.80;86.20
51021;DHT22;38907;45.562;8.856;2023-04-15T02:57:51;9.80;85.90
51021;DHT22;38907;45.562;8.856;2023-04-15T03:02:57;9.80;87.00
51021;DHT22;38907;45.562;8.856;2023-04-15T03:07:59;9.80;87.80
51021;DHT22;38907;45.562;8.856;2023-04-15T03:13:04;9.70;88.90
51021;DHT22;38907;45.562;8.856;2023-04-15T03:18:06;9.50;89.00
51021;DHT22;38907;45.562;8.856;2023-04-15T03:23:08;9.40;90.30
51021;DHT22;38907;45.562;8.856;2023-04-15T03:28:11;9.40;90.40
51021;DHT22;38907;45.562;8.856;2023-04-15T03:33:13;9.50;90.80
51021;DHT22;38907;45.562;8.856;2023-04-15T03:38:15;9.40;91.30
51021;DHT22;38907;45.562;8.856;2023-04-15T03:43:18;9.30;91.80
51021;DHT22;38907;45.562;8.856;2023-04-15T03:48:20;9.30;92.10
51021;DHT22;38907;45.562;8.856;2023-04-15T03:53:22;9.30;92.40
51021;DHT22;38907;45.562;8.856;2023-04-15T03:58:26;8.90;93.20
51021;DHT22;38907;45.562;8.856;2023-04-15T04:03:27;8.90;93.90
51021;DHT22;38907;45.562;8.856;2023-04-15T04:08:29;9.00;94.10
51021;DHT22;38907;45.562;8.856;2023-04-15T04:13:32;9.20;94.10
51021;DHT22;38907;45.562;8.856;2023-04-15T04:18:34;9.10;94.50
51021;DHT22;38907;45.562;8.856;2023-04-15T04:23:36;9.20;94.80
51021;DHT22;38907;45.562;8.856;2023-04-15T04:28:40;9.20;95.30
51021;DHT22;38907;45.562;8.856;2023-04-15T04:33:41;9.50;95.70
51021;DHT22;38907;45.562;8.856;2023-04-15T04:38:43;9.20;96.40
51021;DHT22;38907;45.562;8.856;2023-04-15T04:43:47;9.30;97.00
51021;DHT22;38907;45.562;8.856;2023-04-15T04:48:49;9.40;97.10
51021;DHT22;38907;45.562;8.856;2023-04-15T04:53:51;9.40;97.60
51021;DHT22;38907;45.562;8.856;2023-04-15T04:58:54;9.30;97.80
51021;DHT22;38907;45.562;8.856;2023-04-15T05:03:56;9.50;98.10
51021;DHT22;38907;45.562;8.856;2023-04-15T05:08:57;9.30;98.50
51021;DHT22;38907;45.562;8.856;2023-04-15T05:14:02;8.80;99.90
51021;DHT22;38907;45.562;8.856;2023-04-15T05:19:03;8.90;99.90
51021;DHT22;38907;45.562;8.856;2023-04-15T05:24:05;9.20;99.90
51021;DHT22;38907;45.562;8.856;2023-04-15T05:29:09;9.20;99.90
51021;DHT22;38907;45.562;8.856;2023-04-15T05:34:10;9.20;99.90
51021;DHT22;38907;45.562;8.856;2023-04-15T05:39:12;9.10;99.90
51021;DHT22;38907;45.562;8.856;2023-04-15T05:44:16;9.60;99.90
51021;DHT22;38907;45.562;8.856;2023-04-15T05:49:17;9.80;99.90
51021;DHT22;38907;45.562;8.856;2023-04-15T05:54:19;9.60;99.90
51021;DHT22;38907;45.562;8.856;2023-04-15T05:59:23;9.40;99.90
51021;DHT22;38907;45.562;8.856;2023-04-15T06:04:25;9.60;99.90
51021;DHT22;38907;45.562;8.856;2023-04-15T06:09:27;9.60;99.90
51021;DHT22;38907;45.562;8.856;2023-04-15T06:14:30;9.60;99.90
51021;DHT22;38907;45.562;8.856;2023-04-15T06:19:32;9.70;99.90
51021;DHT22;38907;45.562;8.856;2023-04-15T06:24:35;10.10;99.90
51021;DHT22;38907;45.562;8.856;2023-04-15T06:29:39;10.20;99.90
51021;DHT22;38907;45.562;8.856;2023-04-15T06:34:40;10.50;99.90
51021;DHT22;38907;45.562;8.856;2023-04-15T06:39:42;10.60;99.90
51021;DHT22;38907;45.562;8.856;2023-04-15T06:44:46;10.80;99.90
51021;DHT22;38907;45.562;8.856;2023-04-15T06:49:48;11.00;99.90
51021;DHT22;38907;45.562;8.856;2023-04-15T06:54:50;10.90;99.90
51021;DHT22;38907;45.562;8.856;2023-04-15T06:59:53;11.10;99.90
51021;DHT22;38907;45.562;8.856;2023-04-15T07:04:55;11.40;99.90
51021;DHT22;38907;45.562;8.856;2023-04-15T07:09:57;11.50;99.90
51021;DHT22;38907;45.562;8.856;2023-04-15T07:15:00;11.80;99.90
51021;DHT22;38907;45.562;8.856;2023-04-15T07:20:02;11.90;99.90
51021;DHT22;38907;45.562;8.856;2023-04-15T07:25:06;12.00;99.90
51021;DHT22;38907;45.562;8.856;2023-04-15T07:30:10;12.30;99.90
51021;DHT22;38907;45.562;8.856;2023-04-15T07:35:12;12.50;99.90
51021;DHT22;38907;45.562;8.856;2023-04-15T07:40:14;12.60;99.90
51021;DHT22;38907;45.562;8.856;2023-04-15T07:45:18;12.70;99.90
51021;DHT22;38907;45.562;8.856;2023-04-15T07:50:19;12.70;99.90
51021;DHT22;38907;45.562;8.856;2023-04-15T07:55:22;12.80;99.90
51021;DHT22;38907;45.562;8.856;2023-04-15T08:00:25;12.70;99.90
51021;DHT22;38907;45.562;8.856;2023-04-15T08:05:27;12.60;99.90
51021;DHT22;38907;45.562;8.856;2023-04-15T08:10:29;12.70;99.90
51021;DHT22;38907;45.562;8.856;2023-04-15T08:15:33;13.10;99.90
51021;DHT22;38907;45.562;8.856;2023-04-15T08:20:35;13.30;99.90
51021;DHT22;38907;45.562;8.856;2023-04-15T08:25:37;13.60;99.90
51021;DHT22;38907;45.562;8.856;2023-04-15T08:30:40;13.90;99.90
51021;DHT22;38907;45.562;8.856;2023-04-15T08:35:42;13.70;99.90
51021;DHT22;38907;45.562;8.856;2023-04-15T08:40:44;13.70;99.90
51021;DHT22;38907;45.562;8.856;2023-04-15T08:45:49;13.60;99.90
51021;DHT22;38907;45.562;8.856;2023-04-15T08:50:52;13.70;99.90
51021;DHT22;38907;45.562;8.856;2023-04-15T08:55:56;13.90;99.90
51021;DHT22;38907;45.562;8.856;2023-04-15T09:01:00;13.90;99.90
51021;DHT22;38907;45.562;8.856;2023-04-15T09:06:03;13.80;99.90
51021;DHT22;38907;45.562;8.856;2023-04-15T09:11:05;14.20;99.90
51021;DHT22;38907;45.562;8.856;2023-04-15T09:16:09;14.50;99.90
51021;DHT22;38907;45.562;8.856;2023-04-15T09:21:11;14.50;99.90
51021;DHT22;38907;45.562;8.856;2023-04-15T09:26:15;14.50;99.00
51021;DHT22;38907;45.562;8.856;2023-04-15T09:31:28;14.50;98.40
51021;DHT22;38907;45.562;8.856;2023-04-15T09:36:50;14.30;97.10
51021;DHT22;38907;45.562;8.856;2023-04-15T09:42:05;14.50;99.10
51021;DHT22;38907;45.562;8.856;2023-04-15T09:47:08;14.70;97.50
51021;DHT22;38907;45.562;8.856;2023-04-15T09:52:13;14.60;97.40
51021;DHT22;38907;45.562;8.856;2023-04-15T09:57:15;14.90;97.00
51021;DHT22;38907;45.562;8.856;2023-04-15T10:02:19;15.00;97.60
51021;DHT22;38907;45.562;8.856;2023-04-15T10:07:21;15.30;97.50
51021;DHT22;38907;45.562;8.856;2023-04-15T10:12:25;15.20;98.50
51021;DHT22;38907;45.562;8.856;2023-04-15T10:17:29;15.30;98.20
51021;DHT22;38907;45.562;8.856;2023-04-15T10:22:35;15.40;99.70
51021;DHT22;38907;45.562;8.856;2023-04-15T10:27:39;15.50;98.70
51021;DHT22;38907;45.562;8.856;2023-04-15T10:32:43;15.70;99.20
51021;DHT22;38907;45.562;8.856;2023-04-15T10:37:46;15.90;96.90
51021;DHT22;38907;45.562;8.856;2023-04-15T10:42:48;16.00;99.00
51021;DHT22;38907;45.562;8.856;2023-04-15T10:47:56;15.90;98.70
51021;DHT22;38907;45.562;8.856;2023-04-15T10:52:58;15.90;99.60
51021;DHT22;38907;45.562;8.856;2023-04-15T10:58:01;15.80;99.20
51021;DHT22;38907;45.562;8.856;2023-04-15T11:03:07;15.90;99.90
51021;DHT22;38907;45.562;8.856;2023-04-15T11:08:10;15.70;98.80
51021;DHT22;38907;45.562;8.856;2023-04-15T11:13:15;15.80;99.30
51021;DHT22;38907;45.562;8.856;2023-04-15T11:18:19;16.10;99.90
51021;DHT22;38907;45.562;8.856;2023-04-15T11:23:28;16.20;99.60
51021;DHT22;38907;45.562;8.856;2023-04-15T11:28:31;16.40;98.70
51021;DHT22;38907;45.562;8.856;2023-04-15T11:33:35;16.40;97.20
51021;DHT22;38907;45.562;8.856;2023-04-15T11:38:41;16.50;98.70
51021;DHT22;38907;45.562;8.856;2023-04-15T11:43:43;16.60;96.10
51021;DHT22;38907;45.562;8.856;2023-04-15T11:48:46;16.60;97.00
51021;DHT22;38907;45.562;8.856;2023-04-15T11:53:49;16.80;98.40
51021;DHT22;38907;45.562;8.856;2023-04-15T11:58:52;17.00;97.60
51021;DHT22;38907;45.562;8.856;2023-04-15T12:03:57;17.20;97.50
51021;DHT22;38907;45.562;8.856;2023-04-15T12:09:04;17.10;97.60
51021;DHT22;38907;45.562;8.856;2023-04-15T12:14:12;17.00;96.70
51021;DHT22;38907;45.562;8.856;2023-04-15T12:19:16;17.00;97.60
51021;DHT22;38907;45.562;8.856;2023-04-15T12:24:20;17.00;96.90
51021;DHT22;38907;45.562;8.856;2023-04-15T12:29:25;17.00;96.50
51021;DHT22;38907;45.562;8.856;2023-04-15T12:34:31;17.00;96.40
51021;DHT22;38907;45.562;8.856;2023-04-15T12:39:36;17.00;95.60
51021;DHT22;38907;45.562;8.856;2023-04-15T12:44:38;17.10;95.80
51021;DHT22;38907;45.562;8.856;2023-04-15T12:49:42;17.20;95.90
51021;DHT22;38907;45.562;8.856;2023-04-15T12:54:44;17.40;95.10
51021;DHT22;38907;45.562;8.856;2023-04-15T12:59:46;17.40;94.10
51021;DHT22;38907;45.562;8.856;2023-04-15T13:04:49;17.50;93.80
51021;DHT22;38907;45.562;8.856;2023-04-15T13:09:51;17.50;94.00
51021;DHT22;38907;45.562;8.856;2023-04-15T13:14:53;17.50;93.80
51021;DHT22;38907;45.562;8.856;2023-04-15T13:19:56;17.50;93.70
51021;DHT22;38907;45.562;8.856;2023-04-15T13:24:58;17.40;93.00
51021;DHT22;38907;45.562;8.856;2023-04-15T13:30:00;17.40;93.20
51021;DHT22;38907;45.562;8.856;2023-04-15T13:35:04;17.50;92.10
51021;DHT22;38907;45.562;8.856;2023-04-15T13:40:07;17.60;91.80
51021;DHT22;38907;45.562;8.856;2023-04-15T13:45:10;17.50;91.30
51021;DHT22;38907;45.562;8.856;2023-04-15T13:50:13;17.40;92.50
51021;DHT22;38907;45.562;8.856;2023-04-15T13:55:16;17.30;93.10
51021;DHT22;38907;45.562;8.856;2023-04-15T14:00:18;17.20;92.20
51021;DHT22;38907;45.562;8.856;2023-04-15T14:05:21;17.20;91.70
51021;DHT22;38907;45.562;8.856;2023-04-15T14:10:23;17.00;91.20
51021;DHT22;38907;45.562;8.856;2023-04-15T14:15:25;17.00;91.40
51021;DHT22;38907;45.562;8.856;2023-04-15T14:20:28;17.10;92.10
51021;DHT22;38907;45.562;8.856;2023-04-15T14:25:30;17.00;90.30
51021;DHT22;38907;45.562;8.856;2023-04-15T14:30:32;16.80;90.90
51021;DHT22;38907;45.562;8.856;2023-04-15T14:35:36;16.80;90.50
51021;DHT22;38907;45.562;8.856;2023-04-15T14:40:40;16.70;91.10
51021;DHT22;38907;45.562;8.856;2023-04-15T14:45:42;16.70;91.40
51021;DHT22;38907;45.562;8.856;2023-04-15T14:50:46;16.70;90.50
51021;DHT22;38907;45.562;8.856;2023-04-15T14:55:48;16.70;90.10
51021;DHT22;38907;45.562;8.856;2023-04-15T15:00:50;16.60;91.80
51021;DHT22;38907;45.562;8.856;2023-04-15T15:05:54;16.60;95.80
51021;DHT22;38907;45.562;8.856;2023-04-15T15:10:57;16.50;95.50
51021;DHT22;38907;45.562;8.856;2023-04-15T15:15:59;16.60;94.30
51021;DHT22;38907;45.562;8.856;2023-04-15T15:21:03;17.00;94.90
51021;DHT22;38907;45.562;8.856;2023-04-15T15:26:06;17.30;91.10
51021;DHT22;38907;45.562;8.856;2023-04-15T15:31:08;17.50;92.00
51021;DHT22;38907;45.562;8.856;2023-04-15T15:36:12;17.70;90.10
51021;DHT22;38907;45.562;8.856;2023-04-15T15:41:14;17.70;87.10
51021;DHT22;38907;45.562;8.856;2023-04-15T15:46:17;18.00;84.90
51021;DHT22;38907;45.562;8.856;2023-04-15T15:51:20;17.80;83.70
51021;DHT22;38907;45.562;8.856;2023-04-15T15:56:24;17.90;84.30
51021;DHT22;38907;45.562;8.856;2023-04-15T16:01:27;18.00;82.80
51021;DHT22;38907;45.562;8.856;2023-04-15T16:06:30;18.00;82.80
51021;DHT22;38907;45.562;8.856;2023-04-15T16:11:33;18.20;83.60
51021;DHT22;38907;45.562;8.856;2023-04-15T16:16:37;18.40;82.30
51021;DHT22;38907;45.562;8.856;2023-04-15T16:21:41;18.40;81.40
51021;DHT22;38907;45.562;8.856;2023-04-15T16:26:44;18.30;81.60
51021;DHT22;38907;45.562;8.856;2023-04-15T16:31:46;18.40;82.70
51021;DHT22;38907;45.562;8.856;2023-04-15T16:36:50;18.20;84.50
51021;DHT22;38907;45.562;8.856;2023-04-15T16:41:52;17.80;84.20
51021;DHT22;38907;45.562;8.856;2023-04-15T16:46:55;17.50;84.70
51021;DHT22;38907;45.562;8.856;2023-04-15T16:51:58;17.40;85.10
51021;DHT22;38907;45.562;8.856;2023-04-15T16:57:00;17.30;88.00
51021;DHT22;38907;45.562;8.856;2023-04-15T17:02:02;17.30;88.70
51021;DHT22;38907;45.562;8.856;2023-04-15T17:07:06;17.20;88.80
51021;DHT22;38907;45.562;8.856;2023-04-15T17:12:08;17.20;87.70
51021;DHT22;38907;45.562;8.856;2023-04-15T17:17:11;17.20;88.40
51021;DHT22;38907;45.562;8.856;2023-04-15T17:22:14;17.20;89.30
51021;DHT22;38907;45.562;8.856;2023-04-15T17:27:17;17.10;90.60
51021;DHT22;38907;45.562;8.856;2023-04-15T17:32:19;17.10;91.00
51021;DHT22;38907;45.562;8.856;2023-04-15T17:37:23;17.00;90.70
51021;DHT22;38907;45.562;8.856;2023-04-15T17:42:26;17.00;90.90
51021;DHT22;38907;45.562;8.856;2023-04-15T17:47:29;17.00;93.10
51021;DHT22;38907;45.562;8.856;2023-04-15T17:52:32;16.80;94.50
51021;DHT22;38907;45.562;8.856;2023-04-15T17:57:34;16.70;94.20
51021;DHT22;38907;45.562;8.856;2023-04-15T18:02:36;16.60;94.20
51021;DHT22;38907;45.562;8.856;2023-04-15T18:07:39;16.60;94.60
51021;DHT22;38907;45.562;8.856;2023-04-15T18:12:41;16.50;94.60
51021;DHT22;38907;45.562;8.856;2023-04-15T18:17:43;16.50;94.40
51021;DHT22;38907;45.562;8.856;2023-04-15T18:22:47;16.40;93.40
51021;DHT22;38907;45.562;8.856;2023-04-15T18:27:50;16.40;92.80
51021;DHT22;38907;45.562;8.856;2023-04-15T18:32:52;16.30;92.80
51021;DHT22;38907;45.562;8.856;2023-04-15T18:37:56;16.20;92.30
51021;DHT22;38907;45.562;8.856;2023-04-15T18:42:59;16.20;93.20
51021;DHT22;38907;45.562;8.856;2023-04-15T18:48:01;16.00;92.50
51021;DHT22;38907;45.562;8.856;2023-04-15T18:53:05;16.00;92.40
51021;DHT22;38907;45.562;8.856;2023-04-15T18:58:07;16.00;93.10
51021;DHT22;38907;45.562;8.856;2023-04-15T19:03:09;15.80;93.30
51021;DHT22;38907;45.562;8.856;2023-04-15T19:08:13;15.70;93.60
51021;DHT22;38907;45.562;8.856;2023-04-15T19:13:15;15.70;93.90
51021;DHT22;38907;45.562;8.856;2023-04-15T19:18:16;15.70;92.70
51021;DHT22;38907;45.562;8.856;2023-04-15T19:23:20;15.70;92.00
51021;DHT22;38907;45.562;8.856;2023-04-15T19:28:22;15.60;92.10
51021;DHT22;38907;45.562;8.856;2023-04-15T19:33:24;15.60;92.00
51021;DHT22;38907;45.562;8.856;2023-04-15T19:38:32;15.50;91.60
51021;DHT22;38907;45.562;8.856;2023-04-15T19:43:35;15.50;91.30
51021;DHT22;38907;45.562;8.856;2023-04-15T19:48:37;15.40;91.50
51021;DHT22;38907;45.562;8.856;2023-04-15T19:53:40;15.40;91.30
51021;DHT22;38907;45.562;8.856;2023-04-15T19:58:42;15.30;91.50
51021;DHT22;38907;45.562;8.856;2023-04-15T20:03:46;15.20;91.60
51021;DHT22;38907;45.562;8.856;2023-04-15T20:08:50;15.20;92.20
51021;DHT22;38907;45.562;8.856;2023-04-15T20:13:52;15.10;92.50
51021;DHT22;38907;45.562;8.856;2023-04-15T20:18:54;15.00;93.10
51021;DHT22;38907;45.562;8.856;2023-04-15T20:23:57;15.00;93.50
51021;DHT22;38907;45.562;8.856;2023-04-15T20:28:59;14.90;94.00
51021;DHT22;38907;45.562;8.856;2023-04-15T20:34:01;14.80;94.30
51021;DHT22;38907;45.562;8.856;2023-04-15T20:39:04;14.80;94.50
51021;DHT22;38907;45.562;8.856;2023-04-15T20:44:07;14.80;94.70
51021;DHT22;38907;45.562;8.856;2023-04-15T20:49:09;14.70;95.20
51021;DHT22;38907;45.562;8.856;2023-04-15T20:54:12;14.60;95.40
51021;DHT22;38907;45.562;8.856;2023-04-15T20:59:14;14.60;95.70
51021;DHT22;38907;45.562;8.856;2023-04-15T21:04:16;14.60;96.10
51021;DHT22;38907;45.562;8.856;2023-04-15T21:09:19;14.60;96.30
51021;DHT22;38907;45.562;8.856;2023-04-15T21:14:21;14.40;96.60
51021;DHT22;38907;45.562;8.856;2023-04-15T21:19:23;14.40;97.00
51021;DHT22;38907;45.562;8.856;2023-04-15T21:24:27;14.30;97.60
51021;DHT22;38907;45.562;8.856;2023-04-15T21:29:29;14.20;98.10
51021;DHT22;38907;45.562;8.856;2023-04-15T21:34:31;14.10;98.70
51021;DHT22;38907;45.562;8.856;2023-04-15T21:39:34;14.10;99.00
51021;DHT22;38907;45.562;8.856;2023-04-15T21:44:36;14.20;99.20
51021;DHT22;38907;45.562;8.856;2023-04-15T21:49:38;14.20;99.50
51021;DHT22;38907;45.562;8.856;2023-04-15T21:54:41;14.20;99.80
51021;DHT22;38907;45.562;8.856;2023-04-15T21:59:43;14.00;99.90
51021;DHT22;38907;45.562;8.856;2023-04-15T22:04:45;13.50;99.90
51021;DHT22;38907;45.562;8.856;2023-04-15T22:09:49;13.60;99.90
51021;DHT22;38907;45.562;8.856;2023-04-15T22:14:51;13.60;99.90
51021;DHT22;38907;45.562;8.856;2023-04-15T22:19:53;13.70;99.90
51021;DHT22;38907;45.562;8.856;2023-04-15T22:24:56;12.90;99.90
51021;DHT22;38907;45.562;8.856;2023-04-15T22:29:58;12.60;99.90
51021;DHT22;38907;45.562;8.856;2023-04-15T22:35:00;12.80;99.90
51021;DHT22;38907;45.562;8.856;2023-04-15T22:40:04;12.90;99.90
51021;DHT22;38907;45.562;8.856;2023-04-15T22:45:07;12.60;99.90
51021;DHT22;38907;45.562;8.856;2023-04-15T22:50:09;12.60;99.90
51021;DHT22;38907;45.562;8.856;2023-04-15T22:55:13;12.90;99.90
51021;DHT22;38907;45.562;8.856;2023-04-15T23:00:15;13.00;99.90
51021;DHT22;38907;45.562;8.856;2023-04-15T23:05:17;13.00;99.90
51021;DHT22;38907;45.562;8.856;2023-04-15T23:10:20;12.90;99.90
51021;DHT22;38907;45.562;8.856;2023-04-15T23:15:22;12.60;99.90
51021;DHT22;38907;45.562;8.856;2023-04-15T23:20:24;12.40;99.90
51021;DHT22;38907;45.562;8.856;2023-04-15T23:25:27;12.50;99.90
51021;DHT22;38907;45.562;8.856;2023-04-15T23:30:29;12.70;99.90
51021;DHT22;38907;45.562;8.856;2023-04-15T23:35:31;12.60;99.90
51021;DHT22;38907;45.562;8.856;2023-04-15T23:40:34;12.40;99.90
51021;DHT22;38907;45.562;8.856;2023-04-15T23:45:36;12.60;99.90
51021;DHT22;38907;45.562;8.856;2023-04-15T23:50:38;12.60;99.90
51021;DHT22;38907;45.562;8.856;2023-04-15T23:55:41;12.20;99.90
